Time;durP1;ratioP1;P1;durP2;ratioP2;P2;SDS_P1;SDS_P2;PMS_P1;PMS_P2;Temp;Humidity;BMP_temperature;BMP_pressure;BME280_temperature;BME280_humidity;BME280_pressure;Samples;Min_cycle;Max_cycle;Signal;HPM_P1;HPM_P2
2021/10/04 00:01:48;;;;;;;1.00;0.90;;;;;;;16.61;63.36;97155.88;4988343;28;20038;-85
2021/10/04 00:04:15;;;;;;;2.45;1.10;;;;;;;16.62;63.41;97162.72;5004225;28;20404;-85
2021/10/04 00:06:40;;;;;;;0.82;0.82;;;;;;;16.60;63.18;97162.19;4972786;28;20026;-85
2021/10/04 00:09:05;;;;;;;1.20;0.80;;;;;;;16.59;63.45;97178.28;4991889;28;20034;-85
2021/10/04 00:11:31;;;;;;;0.95;0.95;;;;;;;16.59;63.22;97184.31;4992271;28;20049;-85
2021/10/04 00:13:56;;;;;;;1.77;0.60;;;;;;;16.57;63.50;97191.69;4974543;28;20564;-86
2021/10/04 00:16:21;;;;;;;0.77;0.50;;;;;;;16.47;63.56;97187.34;4990271;28;20527;-85
2021/10/04 00:18:47;;;;;;;0.68;0.50;;;;;;;16.50;63.48;97193.88;4991841;28;20036;-85
2021/10/04 00:21:13;;;;;;;0.60;0.50;;;;;;;16.48;63.44;97196.81;4972455;28;20042;-85
2021/10/04 00:23:38;;;;;;;0.50;0.50;;;;;;;16.44;63.34;97185.28;4972701;28;20100;-85
2021/10/04 00:26:04;;;;;;;0.88;0.60;;;;;;;16.35;63.27;97191.44;4990743;28;20378;-86
2021/10/04 00:28:29;;;;;;;0.60;0.52;;;;;;;16.38;63.10;97181.16;4991665;28;20025;-85
2021/10/04 00:30:55;;;;;;;0.40;0.40;;;;;;;16.39;63.27;97181.94;5006185;28;20505;-85
2021/10/04 00:33:20;;;;;;;1.15;0.68;;;;;;;16.37;63.36;97187.47;4991248;28;20042;-84
2021/10/04 00:35:46;;;;;;;0.98;0.60;;;;;;;16.34;63.22;97180.16;4974515;28;20084;-85
2021/10/04 00:38:11;;;;;;;1.25;0.60;;;;;;;16.34;63.21;97185.41;4972727;28;20363;-86
2021/10/04 00:40:37;;;;;;;1.48;0.50;;;;;;;16.28;63.30;97176.81;5005403;28;20026;-86
2021/10/04 00:43:03;;;;;;;1.13;0.50;;;;;;;16.26;62.78;97168.41;4975636;28;20547;-85
2021/10/04 00:45:30;;;;;;;0.50;0.50;;;;;;;16.19;63.23;97160.06;4990663;28;20038;-86
2021/10/04 00:47:56;;;;;;;1.33;0.50;;;;;;;16.24;63.07;97162.66;4975067;28;20506;-85
2021/10/04 00:50:22;;;;;;;1.05;0.47;;;;;;;16.19;63.04;97141.69;4974604;28;20494;-84
2021/10/04 00:52:48;;;;;;;1.00;0.50;;;;;;;16.20;63.00;97145.88;5006723;28;20034;-85
2021/10/04 00:55:14;;;;;;;0.30;0.30;;;;;;;16.21;63.09;97144.84;4991150;28;20401;-84
2021/10/04 00:57:40;;;;;;;0.40;0.40;;;;;;;16.25;62.94;97139.81;4987916;28;20061;-85
2021/10/04 01:00:08;;;;;;;0.40;0.38;;;;;;;16.18;62.79;97140.13;4968277;28;20041;-85
2021/10/04 01:02:33;;;;;;;1.52;0.65;;;;;;;16.16;63.09;97142.28;4988973;28;20518;-85
2021/10/04 01:04:58;;;;;;;1.00;0.40;;;;;;;16.12;63.43;97138.63;4978317;28;20133;-85
2021/10/04 01:07:24;;;;;;;1.05;0.30;;;;;;;16.18;63.13;97150.66;4991367;28;20022;-84
2021/10/04 01:09:49;;;;;;;0.35;0.35;;;;;;;16.14;63.25;97162.75;4990615;28;20029;-85
2021/10/04 01:12:15;;;;;;;0.30;0.30;;;;;;;16.11;63.40;97160.72;4973953;28;20477;-84
2021/10/04 01:14:40;;;;;;;0.73;0.73;;;;;;;16.12;63.59;97170.16;4965028;28;20360;-84
2021/10/04 01:17:06;;;;;;;0.50;0.40;;;;;;;16.18;63.41;97181.41;4970518;28;20034;-84
2021/10/04 01:19:31;;;;;;;1.15;0.50;;;;;;;16.06;63.98;97179.16;4990531;28;20068;-84
2021/10/04 01:21:56;;;;;;;0.30;0.25;;;;;;;16.14;63.91;97170.66;4973357;28;20034;-84
2021/10/04 01:24:22;;;;;;;0.40;0.40;;;;;;;16.14;63.64;97175.91;4971574;28;20061;-86
2021/10/04 01:26:48;;;;;;;1.10;0.50;;;;;;;16.07;64.10;97176.25;4970757;28;20302;-85
2021/10/04 01:29:13;;;;;;;2.22;0.40;;;;;;;16.08;63.43;97171.78;4972233;28;20117;-85
2021/10/04 01:31:39;;;;;;;1.42;0.50;;;;;;;16.08;64.05;97166.53;4972180;28;20037;-85
2021/10/04 01:34:05;;;;;;;1.05;0.38;;;;;;;16.05;63.80;97169.69;4972013;28;20034;-85
2021/10/04 01:36:31;;;;;;;0.35;0.32;;;;;;;16.07;63.64;97164.94;4972465;28;20042;-84
2021/10/04 01:38:57;;;;;;;0.60;0.43;;;;;;;16.03;63.99;97164.72;4997802;28;20133;-86
2021/10/04 01:41:23;;;;;;;1.02;0.40;;;;;;;16.10;63.53;97164.41;5004200;28;20045;-86
2021/10/04 01:43:49;;;;;;;0.47;0.40;;;;;;;16.10;63.91;97162.53;4991355;28;20037;-86
2021/10/04 01:46:14;;;;;;;0.73;0.30;;;;;;;16.13;63.66;97157.81;5007835;28;20034;-85
2021/10/04 01:48:40;;;;;;;1.33;0.70;;;;;;;16.16;63.63;97163.28;4993872;28;20128;-86
2021/10/04 01:51:06;;;;;;;1.23;0.60;;;;;;;16.10;63.92;97169.66;4973886;28;20057;-86
2021/10/04 01:53:31;;;;;;;1.08;0.60;;;;;;;16.08;63.89;97164.66;4974674;28;20397;-86
2021/10/04 01:55:57;;;;;;;1.13;0.50;;;;;;;16.10;64.00;97169.66;5007304;28;20044;-84
2021/10/04 01:58:23;;;;;;;2.35;0.70;;;;;;;16.07;64.05;97176.25;4974740;28;20040;-85
2021/10/04 02:00:48;;;;;;;0.63;0.40;;;;;;;16.04;64.26;97176.81;4991005;28;20155;-85
2021/10/04 02:03:14;;;;;;;2.53;1.08;;;;;;;16.05;64.33;97178.34;4991272;28;20454;-85
2021/10/04 02:05:40;;;;;;;0.55;0.50;;;;;;;16.09;64.25;97174.13;5007318;28;20030;-85
2021/10/04 02:08:06;;;;;;;3.70;0.70;;;;;;;16.06;64.06;97164.19;4974580;28;20040;-85
2021/10/04 02:10:38;;;;;;;0.70;0.70;;;;;;;15.87;64.25;97174.63;4974661;28;20426;-86
2021/10/04 02:13:05;;;;;;;1.58;0.80;;;;;;;15.99;64.38;97176.06;4974231;28;20033;-85
2021/10/04 02:15:32;;;;;;;0.82;0.60;;;;;;;16.08;64.00;97171.78;4991270;28;20038;-85
2021/10/04 02:17:58;;;;;;;2.10;0.90;;;;;;;16.02;64.21;97162.38;4974639;28;20711;-85
2021/10/04 02:20:27;;;;;;;1.77;0.75;;;;;;;15.99;64.44;97168.19;4990944;28;20493;-85
2021/10/04 02:22:53;;;;;;;0.93;0.93;;;;;;;16.02;64.36;97160.56;4990687;28;20452;-85
2021/10/04 02:25:18;;;;;;;0.88;0.70;;;;;;;16.04;64.48;97158.44;4990669;28;20030;-85
2021/10/04 02:27:47;;;;;;;0.90;0.68;;;;;;;16.01;64.03;97152.94;4990745;28;20022;-84
2021/10/04 02:30:16;;;;;;;1.23;0.70;;;;;;;16.11;63.79;97152.84;4974286;28;20049;-84
2021/10/04 02:32:42;;;;;;;1.85;0.70;;;;;;;16.09;64.09;97152.31;4990387;28;20050;-85
2021/10/04 02:35:07;;;;;;;1.15;0.90;;;;;;;16.08;63.87;97150.78;4970998;28;20062;-85
2021/10/04 02:37:40;;;;;;;1.63;0.80;;;;;;;16.06;63.83;97145.03;4987712;28;20068;-85
2021/10/04 02:40:09;;;;;;;1.60;0.90;;;;;;;16.10;64.01;97153.88;5024619;28;20481;-84
2021/10/04 02:42:35;;;;;;;1.67;0.85;;;;;;;16.21;63.82;97160.59;4997730;28;20029;-85
2021/10/04 02:45:01;;;;;;;3.40;1.60;;;;;;;16.15;64.05;97164.34;4996106;28;20501;-85
2021/10/04 02:47:26;;;;;;;1.77;1.10;;;;;;;16.10;64.17;97159.13;4978290;28;20402;-85
2021/10/04 02:49:52;;;;;;;0.98;0.90;;;;;;;16.12;64.45;97159.63;4994414;28;20037;-84
2021/10/04 02:52:18;;;;;;;1.10;1.00;;;;;;;16.16;64.07;97160.66;4977714;28;20022;-85
2021/10/04 02:54:44;;;;;;;1.52;1.00;;;;;;;16.11;64.17;97165.97;4995397;28;20770;-86
2021/10/04 02:57:10;;;;;;;2.55;1.40;;;;;;;16.07;64.15;97164.94;4978485;28;20033;-86
2021/10/04 02:59:36;;;;;;;1.30;0.90;;;;;;;16.11;64.17;97179.09;4994552;28;20126;-85
2021/10/04 03:02:02;;;;;;;1.63;1.27;;;;;;;16.14;63.92;97175.13;4977922;28;20113;-85
2021/10/04 03:04:27;;;;;;;3.00;1.20;;;;;;;16.15;64.13;97174.06;5010519;28;20030;-85
2021/10/04 03:06:53;;;;;;;1.13;1.02;;;;;;;16.08;64.27;97179.66;4994306;28;20063;-86
2021/10/04 03:09:18;;;;;;;1.15;1.05;;;;;;;16.12;63.99;97196.41;4993994;28;20549;-85
2021/10/04 03:11:43;;;;;;;1.73;1.02;;;;;;;16.07;64.14;97191.22;4977299;28;20040;-84
2021/10/04 03:14:09;;;;;;;2.20;1.33;;;;;;;16.09;64.11;97194.34;4978603;28;20030;-84
2021/10/04 03:16:34;;;;;;;2.70;1.25;;;;;;;16.16;64.03;97194.00;5010315;28;20033;-86
2021/10/04 03:18:59;;;;;;;1.80;1.52;;;;;;;16.15;64.06;97193.22;4994279;28;20022;-85
2021/10/04 03:21:25;;;;;;;1.90;1.35;;;;;;;16.12;64.04;97196.41;4993616;28;20105;-84
2021/10/04 03:23:51;;;;;;;4.15;1.35;;;;;;;16.09;64.40;97204.84;4977421;28;20030;-84
2021/10/04 03:26:16;;;;;;;1.70;1.20;;;;;;;16.12;64.34;97208.78;4977747;28;20041;-84
2021/10/04 03:28:41;;;;;;;2.22;1.40;;;;;;;16.05;64.97;97207.25;4977605;28;20025;-85
2021/10/04 03:31:07;;;;;;;2.58;1.23;;;;;;;16.00;65.03;97207.31;5010644;28;20473;-84
2021/10/04 03:33:33;;;;;;;1.45;1.27;;;;;;;16.07;64.71;97201.72;4992977;28;20049;-85
2021/10/04 03:35:58;;;;;;;1.27;1.17;;;;;;;16.09;64.17;97200.41;4977882;28;20022;-84
2021/10/04 03:38:24;;;;;;;2.20;1.77;;;;;;;16.14;64.21;97199.53;5010503;28;20053;-84
2021/10/04 03:40:49;;;;;;;1.65;1.25;;;;;;;16.05;64.47;97203.84;4977914;28;20410;-85
2021/10/04 03:43:14;;;;;;;1.80;1.52;;;;;;;16.07;64.84;97209.59;4992946;28;20026;-84
2021/10/04 03:45:40;;;;;;;2.55;1.83;;;;;;;16.05;64.65;97207.25;4977467;28;20036;-85
2021/10/04 03:48:05;;;;;;;2.10;1.50;;;;;;;16.06;64.66;97211.44;4977632;28;20103;-84
2021/10/04 03:50:31;;;;;;;2.00;1.70;;;;;;;15.97;64.71;97194.75;4995006;28;20036;-84
2021/10/04 03:52:56;;;;;;;1.70;1.60;;;;;;;16.06;64.73;97205.44;4977085;28;20032;-84
2021/10/04 03:55:22;;;;;;;2.60;1.90;;;;;;;16.03;64.83;97206.75;4993293;28;20030;-84
2021/10/04 03:57:47;;;;;;;2.42;1.95;;;;;;;16.06;64.86;97213.31;4993888;28;20363;-85
2021/10/04 04:00:18;;;;;;;2.20;2.00;;;;;;;15.96;64.81;97210.78;4993826;28;20037;-85
2021/10/04 04:02:44;;;;;;;1.70;1.60;;;;;;;16.07;64.64;97218.28;4977266;28;20041;-84
2021/10/04 04:05:10;;;;;;;1.73;1.63;;;;;;;16.09;64.91;97210.91;4974194;28;20034;-85
2021/10/04 04:07:35;;;;;;;1.95;1.80;;;;;;;16.09;64.49;97218.78;4974294;28;20061;-85
2021/10/04 04:10:05;;;;;;;2.28;1.60;;;;;;;16.04;64.42;97215.41;4979151;28;20036;-85
2021/10/04 04:12:31;;;;;;;1.73;1.63;;;;;;;16.09;64.29;97223.22;4998169;28;20129;-85
2021/10/04 04:14:56;;;;;;;1.75;1.55;;;;;;;16.05;64.65;97224.84;4981686;28;20525;-84
2021/10/04 04:17:21;;;;;;;1.83;1.33;;;;;;;16.02;64.87;97225.41;4981706;28;20060;-85
2021/10/04 04:19:47;;;;;;;1.40;1.30;;;;;;;15.99;64.83;97225.97;4981679;28;20053;-84
2021/10/04 04:22:12;;;;;;;1.27;1.10;;;;;;;16.00;65.14;97233.56;4981572;28;20238;-84
2021/10/04 04:24:38;;;;;;;2.00;1.00;;;;;;;15.89;64.85;97235.50;4981954;28;20033;-84
2021/10/04 04:27:06;;;;;;;2.47;1.63;;;;;;;15.95;64.82;97241.50;4981609;28;20041;-85
2021/10/04 04:29:32;;;;;;;2.55;1.85;;;;;;;15.93;64.58;97248.09;4998109;28;20041;-85
2021/10/04 04:31:58;;;;;;;2.20;1.92;;;;;;;15.98;64.64;97253.28;4981419;28;20034;-84
2021/10/04 04:34:23;;;;;;;2.22;1.65;;;;;;;15.91;64.82;97246.50;4997584;28;20128;-84
2021/10/04 04:36:48;;;;;;;2.50;1.98;;;;;;;15.92;64.85;97260.44;4997612;28;20040;-84
2021/10/04 04:39:14;;;;;;;1.55;1.45;;;;;;;15.92;64.95;97263.06;4981073;28;20026;-86
2021/10/04 04:41:39;;;;;;;1.50;1.40;;;;;;;15.97;64.81;97273.53;4981151;28;20026;-85
2021/10/04 04:44:05;;;;;;;3.40;1.55;;;;;;;15.89;64.81;97274.91;4981187;28;20091;-84
2021/10/04 04:46:30;;;;;;;1.30;1.20;;;;;;;15.92;65.03;97278.81;4996589;28;20035;-84
2021/10/04 04:48:56;;;;;;;2.08;1.40;;;;;;;15.84;65.33;97280.19;4997219;28;20029;-85
2021/10/04 04:51:21;;;;;;;1.92;1.48;;;;;;;15.79;65.66;97282.84;4980587;28;20026;-84
2021/10/04 04:53:46;;;;;;;1.52;1.13;;;;;;;15.90;65.14;97292.22;4980702;28;20038;-84
2021/10/04 04:56:12;;;;;;;1.52;1.15;;;;;;;15.82;65.10;97292.03;5013204;28;20032;-84
2021/10/04 04:58:43;;;;;;;1.27;1.17;;;;;;;15.67;65.40;97291.06;4996845;28;20113;-84
2021/10/04 05:01:09;;;;;;;3.13;1.30;;;;;;;15.91;65.17;97299.03;5011784;28;20684;-84
2021/10/04 05:03:34;;;;;;;1.73;1.20;;;;;;;15.80;65.89;97300.19;4979957;28;20040;-84
2021/10/04 05:05:59;;;;;;;1.67;1.10;;;;;;;15.87;65.01;97308.53;4960195;28;20041;-83
2021/10/04 05:08:25;;;;;;;1.15;1.05;;;;;;;15.94;65.15;97317.91;4993174;28;20022;-84
2021/10/04 05:10:50;;;;;;;1.27;1.17;;;;;;;15.85;65.35;97317.72;4976586;28;20034;-84
2021/10/04 05:13:16;;;;;;;1.58;1.48;;;;;;;15.83;65.60;97318.00;4989337;28;20459;-83
2021/10/04 05:15:41;;;;;;;1.35;1.20;;;;;;;15.84;65.46;97319.56;4992858;28;20034;-83
2021/10/04 05:18:07;;;;;;;1.40;1.30;;;;;;;15.86;65.54;97321.94;5008750;28;20037;-83
2021/10/04 05:20:32;;;;;;;2.10;1.25;;;;;;;15.88;65.45;97325.84;4975814;28;20038;-83
2021/10/04 05:22:58;;;;;;;2.05;1.50;;;;;;;15.91;65.59;97335.03;4976382;28;20038;-83
2021/10/04 05:25:24;;;;;;;1.80;1.40;;;;;;;15.91;65.19;97338.41;4992594;28;20498;-84
2021/10/04 05:27:49;;;;;;;1.65;1.55;;;;;;;15.87;65.43;97331.38;4993236;28;20117;-84
2021/10/04 05:30:14;;;;;;;2.10;1.60;;;;;;;15.93;64.95;97342.63;4976910;28;20045;-83
2021/10/04 05:32:40;;;;;;;1.58;1.40;;;;;;;15.91;65.28;97354.19;4992495;28;20117;-84
2021/10/04 05:35:06;;;;;;;2.20;2.00;;;;;;;15.90;65.11;97355.25;4976415;28;20037;-83
2021/10/04 05:37:32;;;;;;;2.25;1.50;;;;;;;15.89;65.08;97353.66;4992855;28;20383;-83
2021/10/04 05:39:57;;;;;;;2.95;1.65;;;;;;;15.80;65.57;97351.91;4992203;28;20093;-84
2021/10/04 05:42:24;;;;;;;1.73;1.30;;;;;;;15.88;65.08;97364.44;4975950;28;20030;-83
2021/10/04 05:44:49;;;;;;;1.35;1.25;;;;;;;15.80;65.25;97360.56;5001103;28;20569;-83
2021/10/04 05:47:15;;;;;;;2.20;1.52;;;;;;;15.79;65.78;97347.72;5003898;28;20113;-83
2021/10/04 05:49:40;;;;;;;2.17;1.30;;;;;;;15.74;65.73;97351.13;4995478;28;20025;-82
2021/10/04 05:52:06;;;;;;;2.05;1.38;;;;;;;15.72;65.73;97348.00;4982979;28;20101;-82
2021/10/04 05:54:32;;;;;;;1.00;0.98;;;;;;;15.76;65.70;97346.41;4993714;28;20141;-81
2021/10/04 05:56:57;;;;;;;1.40;1.00;;;;;;;15.76;65.91;97343.78;4992775;28;20022;-81
2021/10/04 05:59:22;;;;;;;2.28;1.20;;;;;;;15.74;65.74;97345.88;4993039;28;20104;-81
2021/10/04 06:01:48;;;;;;;1.08;0.95;;;;;;;15.74;65.41;97333.53;4976443;28;20060;-81
2021/10/04 06:04:13;;;;;;;1.50;1.00;;;;;;;15.74;65.75;97340.63;4989897;28;20093;-81
2021/10/04 06:06:39;;;;;;;1.10;1.00;;;;;;;15.70;65.73;97352.75;4973414;28;20045;-80
2021/10/04 06:09:04;;;;;;;1.10;0.70;;;;;;;15.76;65.76;97356.91;4986590;28;20026;-80
2021/10/04 06:11:29;;;;;;;2.45;1.10;;;;;;;15.73;65.53;97357.44;4992580;28;20034;-81
2021/10/04 06:13:55;;;;;;;1.10;1.00;;;;;;;15.74;65.53;97374.75;4992726;28;20466;-81
2021/10/04 06:16:20;;;;;;;1.00;0.70;;;;;;;15.71;65.57;97376.09;4992928;28;20030;-81
2021/10/04 06:18:46;;;;;;;2.17;0.85;;;;;;;15.69;66.37;97374.78;5009048;28;20465;-81
2021/10/04 06:21:11;;;;;;;1.60;1.30;;;;;;;15.65;66.74;97355.41;4974982;28;20485;-81
2021/10/04 06:23:36;;;;;;;1.70;1.40;;;;;;;15.64;66.55;97366.94;4998846;28;20092;-81
2021/10/04 06:26:02;;;;;;;4.40;2.20;;;;;;;15.76;66.68;97377.13;4972076;28;20529;-82
2021/10/04 06:28:30;;;;;;;2.75;1.50;;;;;;;15.75;66.27;97379.00;4954580;28;20033;-81
2021/10/04 06:30:56;;;;;;;2.22;1.90;;;;;;;15.74;66.01;97380.78;4969582;28;20421;-82
2021/10/04 06:33:21;;;;;;;1.85;1.35;;;;;;;15.84;65.85;97387.84;4964419;28;20037;-81
2021/10/04 06:35:47;;;;;;;1.35;1.23;;;;;;;15.89;65.81;97385.19;4973002;28;20026;-81
2021/10/04 06:38:13;;;;;;;1.63;1.45;;;;;;;15.91;65.85;97382.28;4973660;28;20068;-82
2021/10/04 06:40:38;;;;;;;2.33;1.48;;;;;;;15.88;65.86;97372.31;5005086;28;20077;-81
2021/10/04 06:43:04;;;;;;;1.92;1.60;;;;;;;15.81;66.22;97370.00;4986857;28;20397;-81
2021/10/04 06:45:29;;;;;;;2.00;1.48;;;;;;;15.86;66.30;97372.59;5005580;28;20049;-81
2021/10/04 06:47:55;;;;;;;1.80;1.30;;;;;;;15.95;66.08;97377.28;4973001;28;20034;-81
2021/10/04 06:50:20;;;;;;;1.50;1.40;;;;;;;15.95;65.97;97393.03;4988327;28;20042;-81
2021/10/04 06:52:46;;;;;;;2.15;1.70;;;;;;;15.97;65.72;97388.28;4971725;28;20054;-81
2021/10/04 06:55:11;;;;;;;2.65;1.65;;;;;;;15.96;65.83;97399.84;4972559;28;20033;-82
2021/10/04 06:57:38;;;;;;;2.08;1.33;;;;;;;15.94;65.69;97396.69;5007402;28;20030;-81
2021/10/04 07:00:20;;;;;;;2.20;1.60;;;;;;;15.66;66.59;97402.38;4989545;28;20120;-81
2021/10/04 07:02:50;;;;;;;1.55;1.20;;;;;;;15.88;65.91;97411.72;5005670;28;20393;-82
2021/10/04 07:05:18;;;;;;;1.83;1.25;;;;;;;15.99;65.77;97410.59;4981593;28;20558;-81
2021/10/04 07:07:44;;;;;;;1.95;1.40;;;;;;;16.07;65.70;97430.22;4989955;28;20026;-81
2021/10/04 07:10:10;;;;;;;1.45;1.30;;;;;;;16.00;65.73;97432.38;4986290;28;20030;-81
2021/10/04 07:12:35;;;;;;;1.75;1.20;;;;;;;16.08;65.51;97452.81;4971036;28;20493;-82
2021/10/04 07:15:01;;;;;;;1.35;1.25;;;;;;;16.05;65.49;97450.72;5005136;28;20141;-81
2021/10/04 07:17:26;;;;;;;2.40;1.58;;;;;;;16.04;65.66;97449.97;4973331;28;20030;-81
2021/10/04 07:19:52;;;;;;;1.70;1.48;;;;;;;16.04;65.59;97452.59;4984891;28;20149;-82
2021/10/04 07:22:17;;;;;;;1.48;1.38;;;;;;;16.01;65.98;97460.22;4986117;28;20038;-81
2021/10/04 07:24:43;;;;;;;2.35;1.52;;;;;;;15.95;66.35;97453.44;4974161;28;20026;-82
2021/10/04 07:27:08;;;;;;;1.30;1.15;;;;;;;16.05;65.78;97466.50;4978365;28;20428;-81
2021/10/04 07:29:33;;;;;;;2.53;1.63;;;;;;;16.04;66.07;97470.16;4978387;28;20481;-81
2021/10/04 07:32:01;;;;;;;2.65;1.60;;;;;;;15.97;66.40;97475.75;4977801;28;20064;-81
2021/10/04 07:34:28;;;;;;;2.28;1.70;;;;;;;16.00;66.34;97469.16;4978734;28;20257;-81
2021/10/04 07:36:53;;;;;;;1.80;1.70;;;;;;;16.04;66.37;97472.78;4994440;28;20489;-82
2021/10/04 07:39:19;;;;;;;2.15;1.95;;;;;;;16.08;66.30;97476.47;4994520;28;20038;-81
2021/10/04 07:41:46;;;;;;;1.90;1.70;;;;;;;16.06;66.31;97474.09;5010212;28;20046;-81
2021/10/04 07:44:14;;;;;;;2.60;1.58;;;;;;;16.14;66.14;97472.72;5010805;28;20100;-81
2021/10/04 07:46:40;;;;;;;1.63;1.50;;;;;;;16.25;65.77;97474.25;4994292;28;20030;-81
2021/10/04 07:49:05;;;;;;;2.08;1.88;;;;;;;16.14;66.18;97464.84;4994220;28;20444;-81
2021/10/04 07:51:30;;;;;;;1.90;1.48;;;;;;;16.24;65.98;97470.03;4971082;28;20145;-82
2021/10/04 07:53:56;;;;;;;1.73;1.40;;;;;;;16.31;65.53;97453.97;5010092;28;20037;-82
2021/10/04 07:56:22;;;;;;;1.30;1.20;;;;;;;16.44;65.65;97460.44;4993088;28;20029;-82
2021/10/04 07:58:48;;;;;;;1.48;1.38;;;;;;;16.46;65.27;97456.47;4977505;28;20033;-81
2021/10/04 08:01:13;;;;;;;1.95;1.42;;;;;;;16.45;65.54;97465.44;4976599;28;20026;-81
2021/10/04 08:03:39;;;;;;;2.30;1.40;;;;;;;16.52;65.45;97459.88;4971890;28;20031;-82
2021/10/04 08:06:04;;;;;;;1.05;0.90;;;;;;;16.52;64.80;97441.47;4994278;28;20034;-82
2021/10/04 08:08:31;;;;;;;1.42;0.70;;;;;;;16.63;64.46;97455.28;4996781;28;20044;-82
2021/10/04 08:10:56;;;;;;;1.20;1.02;;;;;;;16.72;64.15;97468.63;4971778;28;20026;-82
2021/10/04 08:13:22;;;;;;;2.15;0.85;;;;;;;16.76;63.73;97459.91;4976868;28;20034;-81
2021/10/04 08:15:47;;;;;;;1.45;0.82;;;;;;;16.71;64.42;97451.28;4972982;28;20026;-82
2021/10/04 08:18:12;;;;;;;1.25;0.88;;;;;;;16.74;64.23;97453.34;4974181;28;20042;-82
2021/10/04 08:20:38;;;;;;;1.08;0.77;;;;;;;16.76;63.58;97459.13;5008461;28;20041;-83
2021/10/04 08:23:03;;;;;;;0.50;0.50;;;;;;;16.76;63.38;97469.63;4991791;28;20120;-82
2021/10/04 08:25:29;;;;;;;1.08;0.80;;;;;;;16.79;64.36;97474.34;4992486;28;20057;-82
2021/10/04 08:27:55;;;;;;;1.58;0.82;;;;;;;16.77;63.81;97468.59;4975954;28;20041;-82
2021/10/04 08:30:20;;;;;;;1.38;0.80;;;;;;;16.80;63.95;97462.78;4992114;28;20462;-82
2021/10/04 08:32:47;;;;;;;1.23;1.10;;;;;;;16.70;63.39;97454.97;4991772;28;20030;-82
2021/10/04 08:35:13;;;;;;;1.40;0.73;;;;;;;16.79;63.28;97453.31;4975267;28;20061;-82
2021/10/04 08:37:38;;;;;;;1.20;1.08;;;;;;;16.81;63.61;97456.44;4975416;28;20064;-82
2021/10/04 08:40:06;;;;;;;1.27;0.88;;;;;;;16.87;63.57;97465.88;5008073;28;20494;-82
2021/10/04 08:42:32;;;;;;;1.20;1.08;;;;;;;16.96;63.81;97477.38;4976775;28;20070;-83
2021/10/04 08:44:58;;;;;;;1.25;1.15;;;;;;;16.97;63.27;97471.06;4972803;28;20494;-82
2021/10/04 08:47:24;;;;;;;1.35;1.25;;;;;;;16.99;63.95;97468.91;4972677;28;20153;-82
2021/10/04 08:49:50;;;;;;;1.33;0.80;;;;;;;17.03;63.93;97467.31;4988681;28;20029;-82
2021/10/04 08:52:16;;;;;;;1.42;1.20;;;;;;;17.15;63.26;97472.19;4987987;28;20034;-82
2021/10/04 08:54:46;;;;;;;1.95;0.70;;;;;;;17.02;63.23;97480.75;4972474;28;20041;-82
2021/10/04 08:57:12;;;;;;;0.70;0.60;;;;;;;17.16;63.08;97479.00;4956303;28;20363;-83
2021/10/04 08:59:37;;;;;;;0.60;0.60;;;;;;;17.19;62.86;97488.22;4988735;28;20046;-83
2021/10/04 09:02:24;;;;;;;0.68;0.52;;;;;;;16.86;63.24;97487.97;4988152;28;20069;-82
2021/10/04 09:05:13;;;;;;;0.70;0.60;;;;;;;16.98;63.04;97498.13;4985236;28;20418;-83
2021/10/04 09:07:38;;;;;;;0.60;0.50;;;;;;;17.26;62.85;97496.56;5008058;28;20061;-82
2021/10/04 09:10:05;;;;;;;0.93;0.40;;;;;;;17.21;62.81;97493.97;5007792;28;20580;-83
2021/10/04 09:12:39;;;;;;;0.60;0.60;;;;;;;17.04;63.28;97494.41;4991253;28;20026;-82
2021/10/04 09:15:24;;;;;;;0.63;0.52;;;;;;;16.96;63.10;97497.63;4991724;28;20022;-82
2021/10/04 09:17:50;;;;;;;1.53;0.43;;;;;;;17.12;63.63;97503.53;5007694;28;20490;-83
2021/10/04 09:20:16;;;;;;;1.02;0.68;;;;;;;17.22;63.08;97514.75;4975072;28;20037;-82
2021/10/04 09:22:42;;;;;;;0.50;0.43;;;;;;;17.13;62.94;97495.34;4974616;28;20033;-82
2021/10/04 09:25:08;;;;;;;0.77;0.52;;;;;;;17.03;63.26;97504.16;4991324;28;20022;-83
2021/10/04 09:27:34;;;;;;;1.40;0.50;;;;;;;17.16;63.32;97504.56;4991386;28;20623;-82
2021/10/04 09:30:03;;;;;;;1.23;0.50;;;;;;;17.16;62.47;97505.31;4991712;28;20036;-82
2021/10/04 09:32:39;;;;;;;0.40;0.40;;;;;;;16.99;63.54;97508.38;5006610;28;20529;-81
2021/10/04 09:35:27;;;;;;;1.17;0.57;;;;;;;17.04;63.94;97505.69;4991594;28;20029;-82
2021/10/04 09:38:16;;;;;;;0.73;0.50;;;;;;;17.03;63.51;97512.03;4991491;28;20493;-82
2021/10/04 09:40:44;;;;;;;0.50;0.40;;;;;;;17.24;63.01;97511.84;4981712;28;20402;-82
2021/10/04 09:43:23;;;;;;;0.40;0.40;;;;;;;17.13;63.60;97510.38;4974742;28;20040;-82
2021/10/04 09:46:04;;;;;;;2.33;0.85;;;;;;;17.07;64.19;97500.94;4974568;28;20494;-82
2021/10/04 09:48:29;;;;;;;0.40;0.40;;;;;;;17.36;63.84;97504.34;4989272;28;20040;-84
2021/10/04 09:50:55;;;;;;;2.05;0.50;;;;;;;17.44;63.43;97492.41;4979077;28;20022;-81
2021/10/04 09:53:20;;;;;;;1.15;0.63;;;;;;;17.51;63.35;97499.97;4989234;28;20036;-82
2021/10/04 09:55:47;;;;;;;0.40;0.40;;;;;;;17.54;62.33;97494.13;4964735;28;20092;-82
2021/10/04 09:58:17;;;;;;;0.70;0.50;;;;;;;17.53;62.60;97492.56;4981918;28;20038;-82
2021/10/04 10:00:47;;;;;;;0.50;0.50;;;;;;;17.50;62.35;97490.50;4986985;28;20109;-82
2021/10/04 10:03:14;;;;;;;0.40;0.40;;;;;;;17.46;62.72;97485.03;4980895;28;20034;-82
2021/10/04 10:05:43;;;;;;;0.68;0.47;;;;;;;17.37;62.73;97484.06;4994261;28;20037;-83
2021/10/04 10:08:09;;;;;;;0.57;0.40;;;;;;;17.38;62.74;97472.47;5009792;28;20128;-83
2021/10/04 10:10:36;;;;;;;0.50;0.50;;;;;;;17.41;62.26;97467.44;4994912;28;20517;-82
2021/10/04 10:13:02;;;;;;;0.50;0.40;;;;;;;17.48;62.17;97471.56;4965869;28;20033;-82
2021/10/04 10:15:29;;;;;;;0.30;0.30;;;;;;;17.41;61.81;97469.28;4973131;28;20401;-83
2021/10/04 10:18:08;;;;;;;0.65;0.47;;;;;;;17.29;61.37;97479.41;4989642;28;20029;-82
2021/10/04 10:20:34;;;;;;;0.47;0.47;;;;;;;17.45;62.25;97485.31;4990152;28;20241;-82
2021/10/04 10:22:59;;;;;;;0.43;0.35;;;;;;;17.47;62.72;97488.44;4973306;28;20026;-82
2021/10/04 10:25:46;;;;;;;0.40;0.38;;;;;;;17.24;62.48;97485.53;4983571;28;20406;-83
2021/10/04 10:28:34;;;;;;;0.45;0.43;;;;;;;17.17;63.13;97479.78;4970503;28;20378;-82
2021/10/04 10:31:01;;;;;;;1.23;0.50;;;;;;;17.48;63.10;97488.16;4978278;28;20046;-82
2021/10/04 10:33:46;;;;;;;0.57;0.57;;;;;;;17.42;63.71;97491.91;4986336;28;20026;-81
2021/10/04 10:36:16;;;;;;;0.55;0.55;;;;;;;17.68;62.28;97489.72;4972759;28;20022;-82
2021/10/04 10:39:00;;;;;;;1.17;0.40;;;;;;;17.42;62.59;97497.94;4973861;28;20073;-83
2021/10/04 10:41:26;;;;;;;0.32;0.32;;;;;;;17.76;61.62;97501.50;4972796;28;20076;-83
2021/10/04 10:44:07;;;;;;;0.60;0.60;;;;;;;17.56;62.81;97503.34;4989497;28;20545;-81
2021/10/04 10:46:43;;;;;;;1.15;0.35;;;;;;;17.71;62.10;97499.72;4956256;28;20092;-83
2021/10/04 10:49:08;;;;;;;1.10;0.30;;;;;;;17.93;61.94;97485.25;5005762;28;20045;-83
2021/10/04 10:51:33;;;;;;;0.40;0.40;;;;;;;17.86;60.74;97469.81;4980388;28;20038;-82
2021/10/04 10:54:37;;;;;;;1.30;0.40;;;;;;;17.51;61.68;97476.25;4963067;28;20046;-83
2021/10/04 10:57:02;;;;;;;1.15;0.40;;;;;;;17.88;61.27;97482.69;4993870;28;20121;-82
2021/10/04 10:59:28;;;;;;;0.30;0.30;;;;;;;17.95;60.45;97477.84;4959805;28;1111039;-83
2021/10/04 11:01:53;;;;;;;0.30;0.30;;;;;;;17.92;61.97;97478.41;4983468;28;20495;-82
2021/10/04 11:04:40;;;;;;;1.25;0.40;;;;;;;17.85;61.68;97477.94;4983878;28;20036;-82
2021/10/04 11:07:05;;;;;;;0.40;0.38;;;;;;;18.15;60.01;97477.56;4977701;28;20037;-84
2021/10/04 11:10:10;;;;;;;0.30;0.30;;;;;;;17.95;60.41;97468.09;5009809;28;20536;-83
2021/10/04 11:13:09;;;;;;;0.30;0.30;;;;;;;18.29;60.69;97474.97;5008993;28;20041;-83
2021/10/04 11:15:40;;;;;;;0.50;0.30;;;;;;;18.70;57.68;97476.19;5011185;28;20029;-84
2021/10/04 11:18:07;;;;;;;0.30;0.30;;;;;;;18.76;59.24;97474.25;4994157;28;20656;-84
2021/10/04 11:20:33;;;;;;;0.32;0.30;;;;;;;18.87;58.87;97479.09;4993952;28;20038;-85
2021/10/04 11:23:08;;;;;;;0.40;0.30;;;;;;;18.74;58.67;97485.09;4992761;28;20049;-84
2021/10/04 11:25:46;;;;;;;0.32;0.32;;;;;;;18.64;58.07;97472.84;4981129;28;20042;-84
2021/10/04 11:28:14;;;;;;;0.40;0.40;;;;;;;18.74;57.94;97469.25;4994362;28;20494;-84
2021/10/04 11:30:56;;;;;;;0.63;0.50;;;;;;;18.30;57.72;97468.66;4975680;28;20452;-84
2021/10/04 11:33:24;;;;;;;0.30;0.30;;;;;;;18.56;57.99;97481.44;4982659;28;20038;-84
2021/10/04 11:35:58;;;;;;;0.30;0.30;;;;;;;18.45;59.47;97472.09;4961650;28;20022;-83